Oketo, KS (66518)

1:14 AM CDT on August 02, 2014 (GMT -0500)
N0NB (KKSBREME2) Elev 1312 ft | 39.91 °N, 96.77 °W | Change Station

Current weather conditions updated 4 minutes ago

Overcast
Overcast
70.3 °F
Feels Like 71 °F
N
2.0
Wind Variable Wind from East
Gusts 5.0 mph

Today is forecast to be nearly the same temperature as yesterday.

Today
High -- | Low -- °F
--% Chance of Precip.
Yesterday
High -- | Low -- °F
Precip. -- in
6:25 AM 8:39 PM
Waxing Crescent, 33% visible
Pressure 30.12 in
Visibility 10.0 miles
Clouds Mostly Cloudy 6000 ft
Mostly Cloudy 7000 ft
Overcast 8000 ft
Heat Index 71 °F
Dew Point 64 °F
Humidity 80%
Rainfall 0.00 in
Snow Depth Not available.
UV 0 out of 12
Pollen 7.30 out of 12
Air Quality Not available.
Flu Activity Not available.
METAR KBIE 020555Z AUTO 06004KT 10SM BKN060 BKN070 OVC080 20/17 A3012

More Conditions Fewer Conditions

Pressure 30.12 in
Visibility 10.0 miles
Clouds Mostly Cloudy 6000 ft
Mostly Cloudy 7000 ft
Overcast 8000 ft
Heat Index 71 °F
Dew Point 64 °F
Humidity 80%
Rainfall 0.00 in
Snow Depth Not available.
UV 0 out of 12
Pollen 7.30 out of 12
Air Quality Not available.
Flu Activity Not available.
METAR KBIE 020555Z AUTO 06004KT 10SM BKN060 BKN070 OVC080 20/17 A3012

More Conditions Fewer Conditions

10-Day Weather Forecast

Almanac

Astronomy

Aug. 02, 2014 Rise Set
Actual Time 6:25 AM CDT 8:39 PM CDT
Civil Twilight 5:55 AM CDT 9:09 PM CDT
Nautical Twilight 5:18 AM CDT 9:46 PM CDT
Astronomical Twilight 4:37 AM CDT 10:26 PM CDT
Moon 12:48 PM CDT 11:58 PM CDT
Length of Visible Light 15h 13m
Length of Day
14h 13m
Tomorrow will be 2m 2s shorter.
Waxing Crescent, 33% of the Moon is Illuminated
Today
Waxing Crescent
Aug 3
First Quarter
Aug 10
Full
Aug 17
Last Quarter
Aug 25
New

Today's Extremes

State Highs State Lows

Community

WunderPhotos

Upload Photos

1,739,830 photos uploaded!

Nearby

Snow Depth

Station Depth Elevation
No new snow has been reported.

Earthquake Activity

City Distance Mag. Time & Date
No recent earthquake activity has been reported nearby.
Minimum magnitude displayed is 2.5.

Coastal Water Temperatures

Place Temperature
No Stations Reporting

Nearby Weather Stations

Station Location Temp. Heat Index Dew Point Humidity Wind Precip. Elev Updated Type
N0NB, Bremen, KS 70.3 °F 71 °F 64 °F 80% East  at  2.0 mph 0.00 in / hr 1312 ft 1:10 AM CDT Normal
MesoWest BREME1 , Hanover, KS 69 °F - - - North  at  - 0.00 in / hr 1318 ft 12:00 AM CDT MADIS
MesoWest AXTELL , Axtell, KS 66 °F - - - North  at  - 0.00 in / hr 1337 ft 12:20 AM CDT MADIS

Show More Stations Show Fewer Stations